Time;durP1;ratioP1;P1;durP2;ratioP2;P2;SDS_P1;SDS_P2;PMS_P1;PMS_P2;Temp;Humidity;BMP_temperature;BMP_pressure;BME280_temperature;BME280_humidity;BME280_pressure;Samples;Min_cycle;Max_cycle;Signal;HPM_P1;HPM_P2
2022/06/16 00:00:07;;;;;;;0.52;0.52;;;20.70;48.60;;;;;;5070447;28;20529;-62
2022/06/16 00:02:37;;;;;;;2.50;1.02;;;20.60;48.60;;;;;;5069946;28;20361;-62
2022/06/16 00:05:05;;;;;;;0.70;0.63;;;20.60;48.80;;;;;;5079774;28;20083;-61
2022/06/16 00:07:30;;;;;;;0.90;0.90;;;20.60;49.00;;;;;;5070122;28;20035;-61
2022/06/16 00:09:56;;;;;;;0.55;0.55;;;20.50;49.00;;;;;;5082205;28;20467;-62
2022/06/16 00:12:22;;;;;;;3.28;0.90;;;20.50;49.10;;;;;;5082249;28;20082;-62
2022/06/16 00:14:47;;;;;;;0.93;0.82;;;20.40;49.20;;;;;;5077727;28;20028;-62
2022/06/16 00:17:13;;;;;;;1.05;0.90;;;20.40;49.30;;;;;;5072074;28;20103;-61
2022/06/16 00:19:39;;;;;;;1.05;0.90;;;20.40;49.40;;;;;;5074853;28;20483;-61
2022/06/16 00:22:04;;;;;;;0.82;0.82;;;20.40;49.50;;;;;;5073928;28;20031;-62
2022/06/16 00:24:30;;;;;;;0.57;0.57;;;20.30;49.50;;;;;;5094143;28;20542;-62
2022/06/16 00:26:56;;;;;;;1.45;0.60;;;20.30;50.20;;;;;;5071053;28;20039;-61
2022/06/16 00:29:23;;;;;;;0.60;0.60;;;20.30;49.60;;;;;;5068540;28;20020;-62
2022/06/16 00:31:49;;;;;;;0.55;0.55;;;20.30;49.70;;;;;;5082325;28;20435;-62
2022/06/16 00:34:15;;;;;;;1.02;0.82;;;20.30;49.80;;;;;;5086950;28;20020;-62
2022/06/16 00:36:40;;;;;;;1.27;0.90;;;20.20;49.80;;;;;;5067686;28;20036;-61
2022/06/16 00:39:06;;;;;;;1.13;0.82;;;20.20;49.90;;;;;;5076002;28;20389;-61
2022/06/16 00:41:32;;;;;;;2.35;0.80;;;20.20;49.90;;;;;;5071921;28;20024;-62
2022/06/16 00:44:01;;;;;;;0.63;0.63;;;20.10;49.90;;;;;;5080858;28;20034;-62
2022/06/16 00:46:29;;;;;;;0.55;0.55;;;20.10;50.00;;;;;;5074073;28;20023;-62
2022/06/16 00:49:06;;;;;;;2.95;1.00;;;20.10;50.00;;;;;;5069269;28;20402;-61
2022/06/16 00:51:39;;;;;;;0.52;0.52;;;20.00;50.00;;;;;;5068666;28;20016;-62
2022/06/16 00:54:14;;;;;;;0.65;0.65;;;20.00;50.10;;;;;;5072299;28;20074;-62
2022/06/16 00:56:40;;;;;;;0.43;0.43;;;19.90;50.20;;;;;;5093791;28;20115;-62
2022/06/16 00:59:07;;;;;;;0.70;0.70;;;19.80;50.30;;;;;;5085814;28;20496;-62
2022/06/16 01:01:34;;;;;;;1.65;1.10;;;19.80;50.30;;;;;;5068915;28;20047;-61
2022/06/16 01:06:45;;;;;;;1.60;0.80;;;19.70;50.40;;;;;;5075770;28;20039;-62
2022/06/16 01:09:18;;;;;;;0.65;0.60;;;19.60;50.50;;;;;;5069375;28;20020;-62
2022/06/16 01:14:36;;;;;;;0.60;0.60;;;19.60;50.70;;;;;;5071660;28;20119;-61
2022/06/16 01:17:09;;;;;;;1.10;1.05;;;19.50;50.90;;;;;;5068760;28;20340;-61
2022/06/16 01:20:02;;;;;;;2.00;1.10;;;19.50;51.20;;;;;;5069223;28;20387;-62
2022/06/16 01:22:49;;;;;;;2.35;0.90;;;19.40;51.10;;;;;;5075855;28;20039;-62
2022/06/16 01:25:26;;;;;;;0.90;0.85;;;19.40;51.40;;;;;;5097629;28;20036;-62
2022/06/16 01:28:20;;;;;;;0.73;0.63;;;19.30;51.50;;;;;;5078987;28;20506;-61
2022/06/16 01:31:01;;;;;;;4.80;0.80;;;19.30;51.60;;;;;;5066638;28;20044;-61
2022/06/16 01:33:45;;;;;;;1.85;1.00;;;19.20;51.70;;;;;;5068605;28;20016;-63
2022/06/16 01:36:34;;;;;;;0.70;0.70;;;19.10;51.90;;;;;;5089471;28;20499;-63
2022/06/16 01:39:18;;;;;;;0.65;0.65;;;19.10;52.00;;;;;;5068312;28;20036;-64
2022/06/16 01:41:55;;;;;;;0.80;0.70;;;19.00;52.30;;;;;;5073418;28;20040;-63
2022/06/16 01:44:33;;;;;;;1.33;0.82;;;19.00;52.50;;;;;;5083743;28;20356;-64
2022/06/16 01:47:08;;;;;;;1.50;1.25;;;18.90;52.60;;;;;;5075341;28;20139;-63
2022/06/16 01:49:40;;;;;;;0.90;0.82;;;18.80;52.80;;;;;;5068857;28;20025;-64
2022/06/16 01:52:14;;;;;;;1.67;0.88;;;18.80;53.00;;;;;;5068249;28;20029;-62
2022/06/16 01:54:49;;;;;;;0.80;0.80;;;18.70;53.00;;;;;;5072488;28;20108;-64
2022/06/16 01:57:35;;;;;;;0.77;0.60;;;18.70;53.10;;;;;;5078283;28;20490;-63
2022/06/16 02:00:04;;;;;;;1.65;0.77;;;18.70;53.20;;;;;;5071370;28;20032;-63
2022/06/16 02:02:32;;;;;;;1.60;1.05;;;18.60;53.20;;;;;;5076610;28;20082;-64
2022/06/16 02:05:17;;;;;;;2.25;0.80;;;18.50;53.30;;;;;;5081835;28;20058;-64
2022/06/16 02:08:14;;;;;;;0.77;0.70;;;18.50;53.40;;;;;;5090530;28;20151;-64
2022/06/16 02:10:50;;;;;;;1.50;1.15;;;18.50;53.60;;;;;;5090106;28;20085;-64
2022/06/16 02:13:21;;;;;;;2.83;1.15;;;18.40;53.80;;;;;;5067879;28;20104;-63
2022/06/16 02:15:56;;;;;;;0.80;0.70;;;18.40;54.00;;;;;;5078209;28;20026;-63
2022/06/16 02:18:26;;;;;;;0.98;0.65;;;18.30;54.10;;;;;;5089250;28;20300;-61
2022/06/16 02:21:35;;;;;;;0.75;0.68;;;18.30;54.30;;;;;;5078569;28;20051;-62
2022/06/16 02:24:04;;;;;;;1.42;1.33;;;18.20;54.50;;;;;;5072238;28;20067;-64
2022/06/16 02:26:31;;;;;;;2.83;1.02;;;18.20;54.70;;;;;;5089276;28;20049;-62
2022/06/16 02:28:59;;;;;;;1.00;0.90;;;18.10;54.80;;;;;;5080876;28;20029;-62
2022/06/16 02:31:59;;;;;;;1.45;1.35;;;18.10;54.90;;;;;;5076983;28;20079;-64
2022/06/16 02:35:06;;;;;;;1.15;0.85;;;18.10;55.00;;;;;;5085400;28;20020;-63
2022/06/16 02:37:47;;;;;;;2.40;1.88;;;18.00;55.10;;;;;;5037453;28;20128;-63
2022/06/16 02:40:39;;;;;;;0.95;0.85;;;17.90;55.10;;;;;;5028803;28;20061;-62
2022/06/16 02:43:17;;;;;;;1.08;0.75;;;17.90;55.10;;;;;;5074790;28;20495;-61
2022/06/16 02:46:01;;;;;;;0.90;0.80;;;17.90;55.20;;;;;;5076448;28;20051;-62
2022/06/16 02:48:42;;;;;;;1.00;1.00;;;17.90;55.90;;;;;;5094706;28;20111;-62
2022/06/16 02:51:46;;;;;;;1.42;1.02;;;17.80;55.40;;;;;;5097429;28;20024;-61
2022/06/16 02:54:50;;;;;;;0.82;0.82;;;17.80;55.60;;;;;;5008293;28;20092;-60
2022/06/16 02:57:33;;;;;;;1.50;0.77;;;17.80;55.70;;;;;;5047663;28;20360;-61
2022/06/16 03:00:07;;;;;;;1.25;1.15;;;17.70;55.50;;;;;;5083148;28;20032;-62
2022/06/16 03:02:36;;;;;;;1.35;0.98;;;17.70;55.50;;;;;;5098700;28;20451;-62
2022/06/16 03:05:04;;;;;;;1.30;0.93;;;17.70;55.60;;;;;;5097708;28;20078;-60
2022/06/16 03:07:31;;;;;;;1.10;0.70;;;17.70;55.70;;;;;;5099176;28;20115;-62
2022/06/16 03:09:57;;;;;;;1.23;1.00;;;17.60;55.70;;;;;;5086127;28;20027;-60
2022/06/16 03:12:23;;;;;;;2.92;1.02;;;17.60;55.80;;;;;;5083987;28;20039;-61
2022/06/16 03:14:48;;;;;;;1.27;0.95;;;17.50;56.00;;;;;;5071741;28;20024;-62
2022/06/16 03:17:14;;;;;;;2.05;1.33;;;17.50;56.20;;;;;;5079000;28;20554;-63
2022/06/16 03:19:40;;;;;;;1.33;0.82;;;17.50;56.40;;;;;;5069866;28;20559;-62
2022/06/16 03:22:06;;;;;;;6.28;0.95;;;17.40;56.50;;;;;;5073939;28;20024;-63
2022/06/16 03:24:32;;;;;;;2.22;1.10;;;17.40;56.50;;;;;;5079192;28;20444;-64
2022/06/16 03:26:58;;;;;;;1.30;0.82;;;17.30;56.60;;;;;;5070877;28;20033;-63
2022/06/16 03:29:24;;;;;;;0.98;0.82;;;17.30;56.70;;;;;;5077286;28;20124;-62
2022/06/16 03:31:50;;;;;;;1.25;1.00;;;17.30;56.70;;;;;;5069429;28;20491;-62
2022/06/16 03:34:16;;;;;;;1.65;0.90;;;17.30;56.80;;;;;;5086387;28;20024;-62
2022/06/16 03:36:42;;;;;;;0.73;0.73;;;17.20;56.80;;;;;;5069108;28;20364;-62
2022/06/16 03:39:08;;;;;;;1.08;0.98;;;17.20;56.90;;;;;;5086974;28;20020;-62
2022/06/16 03:41:34;;;;;;;0.77;0.77;;;17.20;57.00;;;;;;5097946;28;20055;-62
2022/06/16 03:43:59;;;;;;;1.33;0.90;;;17.20;57.10;;;;;;5085924;28;20028;-62
2022/06/16 03:46:26;;;;;;;1.33;1.15;;;17.10;57.10;;;;;;5088470;28;20021;-62
2022/06/16 03:48:52;;;;;;;3.08;0.88;;;17.10;57.20;;;;;;5087920;28;20114;-61
2022/06/16 03:51:18;;;;;;;1.70;1.02;;;17.10;57.30;;;;;;5084798;28;20051;-62
2022/06/16 03:53:45;;;;;;;0.70;0.70;;;17.10;57.50;;;;;;5090110;28;20024;-61
2022/06/16 03:56:12;;;;;;;3.40;1.10;;;17.10;57.50;;;;;;5092001;28;20016;-61
2022/06/16 03:58:38;;;;;;;0.80;0.80;;;17.10;57.70;;;;;;5088881;28;20056;-61
2022/06/16 04:01:05;;;;;;;0.80;0.80;;;17.10;57.80;;;;;;5083536;28;20692;-61
2022/06/16 04:06:16;;;;;;;1.17;1.08;;;17.10;58.10;;;;;;5084887;28;20106;-64
2022/06/16 04:08:42;;;;;;;3.10;1.33;;;17.10;58.10;;;;;;5089291;28;20027;-64
2022/06/16 04:11:26;;;;;;;1.52;0.77;;;17.10;58.00;;;;;;5088864;28;20415;-63
2022/06/16 04:14:00;;;;;;;1.67;0.85;;;17.10;58.10;;;;;;5091484;28;20400;-62
2022/06/16 04:16:48;;;;;;;2.35;1.13;;;17.20;58.30;;;;;;5084530;28;20038;-60
2022/06/16 04:19:16;;;;;;;0.82;0.80;;;17.20;58.50;;;;;;5088747;28;20038;-63
2022/06/16 04:21:44;;;;;;;1.00;0.90;;;17.20;58.50;;;;;;5085709;28;20445;-65
2022/06/16 04:24:11;;;;;;;1.45;1.20;;;17.10;58.60;;;;;;5086910;28;20364;-64
2022/06/16 04:26:38;;;;;;;2.15;1.17;;;17.10;58.80;;;;;;5087316;28;20103;-63
2022/06/16 04:29:09;;;;;;;1.48;1.10;;;17.10;59.00;;;;;;5084127;28;20039;-64
2022/06/16 04:31:35;;;;;;;1.20;0.63;;;17.10;59.10;;;;;;5086403;28;20020;-64
2022/06/16 04:34:01;;;;;;;0.98;0.90;;;17.10;59.20;;;;;;5087372;28;20051;-63
2022/06/16 04:36:27;;;;;;;2.33;1.42;;;17.00;59.30;;;;;;5081549;28;20588;-63
2022/06/16 04:38:54;;;;;;;1.90;1.02;;;17.00;59.40;;;;;;5086345;28;20028;-64
2022/06/16 04:41:20;;;;;;;1.05;0.90;;;17.00;59.50;;;;;;5093297;28;20056;-62
2022/06/16 04:43:46;;;;;;;1.23;1.13;;;17.00;59.60;;;;;;5087541;28;20117;-64
2022/06/16 04:46:16;;;;;;;1.77;1.33;;;17.00;59.60;;;;;;5087916;28;20479;-64
2022/06/16 04:48:43;;;;;;;1.30;1.20;;;16.90;59.80;;;;;;5088266;28;20039;-63
2022/06/16 04:51:09;;;;;;;4.95;1.30;;;16.90;60.10;;;;;;5094406;28;20437;-63
2022/06/16 04:53:35;;;;;;;0.95;0.75;;;16.90;60.30;;;;;;5084650;28;20032;-63
2022/06/16 04:56:02;;;;;;;2.80;1.00;;;17.00;60.50;;;;;;5082756;28;20419;-64
2022/06/16 04:58:29;;;;;;;1.70;1.33;;;17.00;60.50;;;;;;5075450;28;20033;-63
2022/06/16 05:00:56;;;;;;;1.08;1.02;;;17.10;60.30;;;;;;5072471;28;20032;-63
2022/06/16 05:03:25;;;;;;;4.57;1.20;;;17.10;60.20;;;;;;5082625;28;20060;-63
2022/06/16 05:05:52;;;;;;;1.33;1.20;;;17.20;60.20;;;;;;5084824;28;20780;-63
2022/06/16 05:08:18;;;;;;;0.80;0.57;;;17.30;60.30;;;;;;5084805;28;20066;-63
2022/06/16 05:10:49;;;;;;;2.22;1.42;;;17.40;60.20;;;;;;5081315;28;20122;-63
2022/06/16 05:13:15;;;;;;;0.73;0.73;;;17.50;60.00;;;;;;5083742;28;20028;-64
2022/06/16 05:15:42;;;;;;;2.58;0.70;;;17.60;59.80;;;;;;5089427;28;20122;-62
2022/06/16 05:18:08;;;;;;;0.60;0.60;;;17.70;59.90;;;;;;5070106;28;20024;-62
2022/06/16 05:20:34;;;;;;;2.90;0.95;;;17.70;59.70;;;;;;5080301;28;20036;-59
2022/06/16 05:23:00;;;;;;;1.10;1.00;;;17.80;59.50;;;;;;5081552;28;20389;-62
2022/06/16 05:25:26;;;;;;;0.80;0.80;;;17.90;60.20;;;;;;5070036;28;20196;-61
2022/06/16 05:27:51;;;;;;;0.98;0.88;;;18.00;59.60;;;;;;5079356;28;20556;-61
2022/06/16 05:30:17;;;;;;;1.27;0.80;;;18.10;59.50;;;;;;5079762;28;20059;-62
2022/06/16 05:32:43;;;;;;;0.73;0.73;;;18.10;59.30;;;;;;5089047;28;20025;-61
2022/06/16 05:35:09;;;;;;;0.82;0.82;;;18.20;59.10;;;;;;5072828;28;20033;-61
2022/06/16 05:37:35;;;;;;;2.13;0.80;;;18.30;59.10;;;;;;5081688;28;20024;-60
2022/06/16 05:40:03;;;;;;;0.93;0.90;;;18.30;59.10;;;;;;5068081;28;20055;-62
2022/06/16 05:42:28;;;;;;;2.90;0.80;;;18.40;59.00;;;;;;5072283;28;20044;-63
2022/06/16 05:44:54;;;;;;;0.70;0.70;;;18.40;58.90;;;;;;5079258;28;20051;-64
2022/06/16 05:47:20;;;;;;;4.97;0.70;;;18.50;58.90;;;;;;5077001;28;20410;-64
2022/06/16 05:49:45;;;;;;;1.80;0.77;;;18.60;58.90;;;;;;5078240;28;20433;-64
2022/06/16 05:52:14;;;;;;;0.65;0.65;;;18.60;58.70;;;;;;5084613;28;20033;-62
2022/06/16 05:54:41;;;;;;;1.15;0.75;;;18.70;58.60;;;;;;5095125;28;20027;-63
2022/06/16 05:57:08;;;;;;;0.65;0.63;;;18.80;58.20;;;;;;5097483;28;20063;-62
2022/06/16 05:59:35;;;;;;;0.80;0.68;;;18.90;58.10;;;;;;5098849;28;20030;-61
2022/06/16 06:02:02;;;;;;;0.77;0.68;;;18.90;57.80;;;;;;5090296;28;20028;-61
2022/06/16 06:04:28;;;;;;;5.22;0.43;;;19.00;57.60;;;;;;5089150;28;20071;-64
2022/06/16 06:06:54;;;;;;;0.55;0.47;;;19.10;57.40;;;;;;5092650;28;20112;-63
2022/06/16 06:17:36;;;;;;;1.40;0.30;;;19.40;56.60;;;;;;5090016;28;20109;-64
2022/06/16 06:20:03;;;;;;;1.00;0.40;;;19.50;56.30;;;;;;5086685;28;20032;-64
2022/06/16 06:22:29;;;;;;;0.50;0.43;;;19.50;56.20;;;;;;5087547;28;20044;-64
2022/06/16 06:24:58;;;;;;;0.30;0.30;;;19.50;55.80;;;;;;5092036;28;20024;-64
2022/06/16 06:27:38;;;;;;;0.45;0.45;;;19.60;55.60;;;;;;5090901;28;20036;-65
2022/06/16 06:30:29;;;;;;;0.50;0.50;;;19.70;55.50;;;;;;5095034;28;20487;-64
2022/06/16 06:32:58;;;;;;;0.50;0.50;;;19.80;55.20;;;;;;5099535;28;20016;-64
2022/06/16 06:35:24;;;;;;;0.43;0.40;;;19.80;55.40;;;;;;5092297;28;20035;-64
2022/06/16 06:37:51;;;;;;;0.30;0.30;;;19.90;54.50;;;;;;5092472;28;20028;-65
2022/06/16 06:40:30;;;;;;;0.50;0.45;;;19.90;54.30;;;;;;5090468;28;20049;-63
2022/06/16 06:42:56;;;;;;;0.28;0.28;;;20.00;53.90;;;;;;5101294;28;20047;-63
2022/06/16 06:45:22;;;;;;;0.60;0.47;;;20.10;53.30;;;;;;5088724;28;20404;-65
2022/06/16 06:47:49;;;;;;;0.25;0.25;;;20.10;52.90;;;;;;5087883;28;20024;-64
2022/06/16 06:50:26;;;;;;;0.30;0.30;;;20.20;52.60;;;;;;5092635;28;20035;-64
2022/06/16 06:52:52;;;;;;;0.30;0.30;;;20.30;52.60;;;;;;5092385;28;20016;-62
2022/06/16 06:55:19;;;;;;;1.50;0.47;;;20.30;52.30;;;;;;5099618;28;20077;-62
2022/06/16 06:57:46;;;;;;;0.40;0.40;;;20.40;51.90;;;;;;5091966;28;20408;-62
2022/06/16 07:00:15;;;;;;;0.45;0.40;;;20.40;51.70;;;;;;5101912;28;20100;-62
2022/06/16 07:02:42;;;;;;;0.70;0.47;;;20.50;51.30;;;;;;5093483;28;20532;-61
2022/06/16 07:05:08;;;;;;;0.30;0.30;;;20.50;51.20;;;;;;5096789;28;20093;-62
2022/06/16 07:07:35;;;;;;;0.60;0.60;;;20.60;51.00;;;;;;5070434;28;20559;-62
2022/06/16 07:10:01;;;;;;;2.80;0.57;;;20.60;50.50;;;;;;5076562;28;20035;-62
2022/06/16 07:12:27;;;;;;;0.55;0.55;;;20.70;50.60;;;;;;5079661;28;20103;-61
2022/06/16 07:14:53;;;;;;;0.90;0.60;;;20.70;50.00;;;;;;5084432;28;20116;-62
2022/06/16 07:17:22;;;;;;;0.40;0.40;;;20.70;50.10;;;;;;5075143;28;20036;-62
2022/06/16 07:19:49;;;;;;;0.20;0.20;;;20.80;50.20;;;;;;5079029;28;20111;-62
2022/06/16 07:22:14;;;;;;;0.85;0.52;;;20.90;50.20;;;;;;5085754;28;20081;-62
2022/06/16 07:24:40;;;;;;;0.65;0.52;;;21.00;50.00;;;;;;5093727;28;20040;-62
2022/06/16 07:27:07;;;;;;;0.35;0.35;;;21.10;50.10;;;;;;5078572;28;20036;-61
2022/06/16 07:29:33;;;;;;;0.25;0.25;;;21.20;50.00;;;;;;5085465;28;20020;-61
2022/06/16 07:31:59;;;;;;;0.35;0.35;;;21.30;49.90;;;;;;5074755;28;20039;-62
2022/06/16 07:34:26;;;;;;;0.70;0.40;;;21.40;49.90;;;;;;5079503;28;20045;-62
2022/06/16 07:36:52;;;;;;;0.30;0.30;;;21.50;49.70;;;;;;5078391;28;20075;-62
2022/06/16 07:39:17;;;;;;;0.40;0.40;;;21.60;49.50;;;;;;5089148;28;20076;-62
2022/06/16 07:41:43;;;;;;;0.30;0.30;;;21.60;49.20;;;;;;5081575;28;20039;-62
2022/06/16 07:44:12;;;;;;;1.02;0.70;;;21.70;49.10;;;;;;5082620;28;20043;-61
2022/06/16 07:46:40;;;;;;;0.40;0.40;;;21.70;48.90;;;;;;5083667;28;20032;-63
2022/06/16 07:49:27;;;;;;;1.75;0.30;;;21.80;48.70;;;;;;5083879;28;20782;-63
2022/06/16 07:51:55;;;;;;;1.08;0.30;;;21.90;48.20;;;;;;5085937;28;20023;-63
2022/06/16 07:54:21;;;;;;;0.77;0.60;;;21.90;48.00;;;;;;5087649;28;20044;-63
2022/06/16 07:56:47;;;;;;;0.38;0.38;;;22.00;48.20;;;;;;5093371;28;20070;-64
2022/06/16 07:59:13;;;;;;;0.30;0.30;;;22.10;47.90;;;;;;5080820;28;20029;-64
2022/06/16 08:01:39;;;;;;;0.30;0.30;;;22.20;47.80;;;;;;5081919;28;20480;-63
2022/06/16 08:04:05;;;;;;;0.65;0.60;;;22.30;47.80;;;;;;5090324;28;20023;-64
2022/06/16 08:06:34;;;;;;;0.40;0.40;;;22.30;47.60;;;;;;5087279;28;20052;-64
2022/06/16 08:09:00;;;;;;;0.60;0.60;;;22.40;47.40;;;;;;5083847;28;20029;-61
2022/06/16 08:14:10;;;;;;;0.20;0.20;;;22.50;47.10;;;;;;5086886;28;20038;-62
2022/06/16 08:16:36;;;;;;;0.40;0.40;;;22.60;46.70;;;;;;5087592;28;20036;-62
2022/06/16 08:19:02;;;;;;;0.32;0.30;;;22.60;46.50;;;;;;5085558;28;20043;-62
2022/06/16 08:21:28;;;;;;;0.30;0.30;;;22.70;46.60;;;;;;5082048;28;20814;-61
2022/06/16 08:23:54;;;;;;;0.25;0.22;;;22.70;46.50;;;;;;5077644;28;20028;-62
2022/06/16 08:26:20;;;;;;;0.40;0.40;;;22.80;46.40;;;;;;5087874;28;20105;-62
2022/06/16 08:28:48;;;;;;;0.57;0.40;;;22.90;46.40;;;;;;5084216;28;20464;-62
2022/06/16 08:31:17;;;;;;;1.15;0.60;;;23.00;45.80;;;;;;5072979;28;20020;-62
2022/06/16 08:33:43;;;;;;;0.60;0.52;;;23.10;45.90;;;;;;5074009;28;20024;-64
2022/06/16 08:36:09;;;;;;;0.35;0.35;;;23.10;45.70;;;;;;5082150;28;20047;-64
2022/06/16 08:38:35;;;;;;;0.40;0.40;;;23.10;45.70;;;;;;5069158;28;20123;-64
2022/06/16 08:41:13;;;;;;;0.45;0.45;;;23.20;45.30;;;;;;5079287;28;20029;-64
2022/06/16 08:43:41;;;;;;;0.40;0.40;;;23.20;45.10;;;;;;5081624;28;20027;-63
2022/06/16 08:46:08;;;;;;;0.30;0.30;;;23.20;44.60;;;;;;5075082;28;20118;-63
2022/06/16 08:49:04;;;;;;;0.50;0.43;;;23.20;44.70;;;;;;5089598;28;20024;-64
2022/06/16 08:51:51;;;;;;;1.00;0.40;;;23.30;44.80;;;;;;5087696;28;20031;-64
2022/06/16 08:54:47;;;;;;;0.98;0.52;;;23.40;44.40;;;;;;5072364;28;20063;-64
2022/06/16 08:57:30;;;;;;;2.65;0.32;;;23.40;44.60;;;;;;5084768;28;20042;-64
2022/06/16 09:00:07;;;;;;;0.30;0.30;;;23.60;44.80;;;;;;5088994;28;20383;-64
2022/06/16 09:02:44;;;;;;;0.70;0.45;;;23.70;44.60;;;;;;5088488;28;20387;-63
2022/06/16 09:05:28;;;;;;;0.28;0.28;;;23.70;44.20;;;;;;5088723;28;20044;-64
2022/06/16 09:08:38;;;;;;;0.30;0.30;;;23.80;44.30;;;;;;5088829;28;20024;-64
2022/06/16 09:11:09;;;;;;;1.38;0.40;;;24.00;44.30;;;;;;5087557;28;20039;-64
2022/06/16 09:14:00;;;;;;;0.30;0.30;;;24.00;44.20;;;;;;5069897;28;20028;-64
2022/06/16 09:16:38;;;;;;;0.47;0.47;;;24.20;44.30;;;;;;5082487;28;20063;-64
2022/06/16 09:19:39;;;;;;;0.40;0.40;;;24.20;43.80;;;;;;5093959;28;20034;-64
2022/06/16 09:22:08;;;;;;;2.08;0.40;;;24.40;43.90;;;;;;5074180;28;20044;-62
2022/06/16 09:24:52;;;;;;;0.50;0.50;;;24.40;43.80;;;;;;5096674;28;20031;-64
2022/06/16 09:27:28;;;;;;;0.30;0.30;;;24.50;43.40;;;;;;5083460;28;20028;-63
2022/06/16 09:30:04;;;;;;;0.40;0.40;;;24.60;43.50;;;;;;5080346;28;20025;-63
2022/06/16 09:32:39;;;;;;;0.32;0.30;;;24.70;43.30;;;;;;5088939;28;20028;-62
2022/06/16 09:35:29;;;;;;;0.60;0.60;;;24.80;43.40;;;;;;5089555;28;20032;-62
2022/06/16 09:38:14;;;;;;;0.65;0.55;;;24.90;43.30;;;;;;5095550;28;20478;-62
2022/06/16 09:40:45;;;;;;;0.40;0.40;;;25.00;43.00;;;;;;5074697;28;20379;-61
2022/06/16 09:43:41;;;;;;;0.45;0.45;;;25.00;43.10;;;;;;5084645;28;20639;-62
2022/06/16 09:46:19;;;;;;;1.65;0.80;;;25.10;43.30;;;;;;5087194;28;20036;-64
2022/06/16 09:49:06;;;;;;;0.85;0.40;;;25.20;42.30;;;;;;5091192;28;20422;-62
2022/06/16 09:51:39;;;;;;;0.40;0.40;;;25.20;42.30;;;;;;5070050;28;20081;-62
2022/06/16 09:54:14;;;;;;;0.50;0.43;;;25.30;42.30;;;;;;5086991;28;20016;-63
2022/06/16 09:57:04;;;;;;;1.83;0.75;;;25.30;42.50;;;;;;5083042;28;20028;-64
2022/06/16 09:59:44;;;;;;;0.65;0.65;;;25.30;42.60;;;;;;5077312;28;20036;-63
2022/06/16 10:02:15;;;;;;;0.77;0.52;;;25.40;42.60;;;;;;5089981;28;20016;-63
2022/06/16 10:04:40;;;;;;;0.65;0.57;;;25.50;42.70;;;;;;5081872;28;20090;-64
2022/06/16 10:07:13;;;;;;;0.50;0.50;;;25.60;42.50;;;;;;5087055;28;20028;-64
2022/06/16 10:09:38;;;;;;;1.02;0.50;;;25.70;42.20;;;;;;5085471;28;20051;-64
2022/06/16 10:12:24;;;;;;;0.52;0.50;;;25.80;42.20;;;;;;5070205;28;20052;-64
2022/06/16 10:15:13;;;;;;;0.30;0.30;;;25.90;42.10;;;;;;5087501;28;20115;-62
2022/06/16 10:17:42;;;;;;;0.40;0.40;;;26.00;42.00;;;;;;5085159;28;20034;-64
2022/06/16 10:20:09;;;;;;;0.60;0.60;;;26.10;41.90;;;;;;5071627;28;20021;-63
2022/06/16 10:22:38;;;;;;;0.50;0.50;;;26.20;42.10;;;;;;5084402;28;20471;-64
2022/06/16 10:25:07;;;;;;;0.50;0.50;;;26.30;42.00;;;;;;5076534;28;20457;-64
2022/06/16 10:27:44;;;;;;;0.73;0.40;;;26.30;41.90;;;;;;5083201;28;20028;-62
2022/06/16 10:30:20;;;;;;;1.55;0.47;;;26.50;41.90;;;;;;5088925;28;20036;-63
2022/06/16 10:32:56;;;;;;;0.73;0.73;;;26.60;41.80;;;;;;5078319;28;20024;-63
2022/06/16 10:35:22;;;;;;;0.43;0.40;;;26.80;41.60;;;;;;5085281;28;20024;-64
2022/06/16 10:37:52;;;;;;;0.80;0.75;;;26.90;41.60;;;;;;5097036;28;20402;-63
2022/06/16 10:40:31;;;;;;;0.50;0.50;;;27.00;41.50;;;;;;5079164;28;20078;-63
2022/06/16 10:43:06;;;;;;;0.52;0.52;;;27.10;41.50;;;;;;5076458;28;20055;-64
2022/06/16 10:45:35;;;;;;;0.63;0.63;;;27.20;41.40;;;;;;5074585;28;20028;-64
2022/06/16 10:48:17;;;;;;;3.80;0.50;;;27.20;40.20;;;;;;5081501;28;20032;-64
2022/06/16 10:51:19;;;;;;;3.28;1.02;;;27.00;40.70;;;;;;5089201;28;20394;-64
2022/06/16 10:54:03;;;;;;;;;;;27.00;40.90;;;;;;5084601;28;20040;-62
2022/06/16 10:56:29;;;;;;;0.52;0.52;;;27.10;40.60;;;;;;5074884;28;19912;-63
2022/06/16 10:59:24;;;;;;;0.85;0.40;;;27.20;40.40;;;;;;5098475;28;20035;-61
2022/06/16 11:01:59;;;;;;;0.45;0.45;;;27.20;40.60;;;;;;5092536;28;20048;-61
2022/06/16 11:04:36;;;;;;;7.13;1.05;;;27.40;40.80;;;;;;5088661;28;20111;-61
2022/06/16 11:07:03;;;;;;;0.85;0.65;;;27.50;40.60;;;;;;5077452;28;20114;-62
2022/06/16 11:09:34;;;;;;;0.50;0.50;;;27.70;40.50;;;;;;5075703;28;20029;-62
2022/06/16 11:12:04;;;;;;;0.70;0.70;;;27.80;40.50;;;;;;5090503;28;20028;-62
2022/06/16 11:14:43;;;;;;;0.80;0.80;;;27.90;40.50;;;;;;5078011;28;20016;-62
2022/06/16 11:17:24;;;;;;;0.77;0.63;;;28.00;40.20;;;;;;5082197;28;20460;-62
2022/06/16 11:19:58;;;;;;;0.50;0.50;;;28.10;40.30;;;;;;5081709;28;20020;-62
2022/06/16 11:22:38;;;;;;;0.73;0.73;;;28.20;40.10;;;;;;5084633;28;20036;-62
2022/06/16 11:25:09;;;;;;;0.70;0.60;;;28.30;39.90;;;;;;5087395;28;20061;-64
2022/06/16 11:27:47;;;;;;;0.60;0.60;;;28.30;39.10;;;;;;5077354;28;20120;-64
2022/06/16 11:30:30;;;;;;;1.02;0.80;;;28.40;39.30;;;;;;5070267;28;20032;-63
2022/06/16 11:32:56;;;;;;;0.60;0.60;;;28.30;39.30;;;;;;5090573;28;20032;-64
2022/06/16 11:35:37;;;;;;;0.82;0.82;;;28.30;39.00;;;;;;5078038;28;20082;-62
2022/06/16 11:38:25;;;;;;;1.42;1.00;;;28.40;38.80;;;;;;5070324;28;20031;-62
2022/06/16 11:40:57;;;;;;;0.98;0.70;;;28.40;38.80;;;;;;5087987;28;20120;-61
2022/06/16 11:44:03;;;;;;;1.85;0.52;;;28.40;38.70;;;;;;5106286;28;20062;-62
2022/06/16 11:46:42;;;;;;;0.80;0.73;;;28.50;38.60;;;;;;5068920;28;20044;-61
2022/06/16 11:50:10;;;;;;;0.88;0.85;;;28.40;38.50;;;;;;5077477;28;20028;-61
2022/06/16 11:53:12;;;;;;;0.70;0.70;;;28.60;38.60;;;;;;5026036;28;20076;-62
2022/06/16 11:55:41;;;;;;;;;;;28.80;38.60;;;;;;5022511;28;20025;-62
2022/06/16 11:58:36;;;;;;;0.50;0.50;;;29.00;38.60;;;;;;5080899;28;20386;-62
2022/06/16 12:01:05;;;;;;;0.65;0.65;;;29.10;38.80;;;;;;5076381;28;20051;-61
2022/06/16 12:03:54;;;;;;;0.70;0.70;;;29.30;38.70;;;;;;5083546;28;20395;-61
2022/06/16 12:06:29;;;;;;;0.60;0.60;;;29.40;38.20;;;;;;5094216;28;20127;-61
2022/06/16 12:09:13;;;;;;;0.60;0.60;;;29.50;38.00;;;;;;5077363;28;20037;-62
2022/06/16 12:12:05;;;;;;;0.60;0.60;;;29.50;37.90;;;;;;5076089;28;20543;-62
2022/06/16 12:14:55;;;;;;;1.60;0.80;;;29.60;38.00;;;;;;5082803;28;20044;-62
2022/06/16 12:17:32;;;;;;;0.60;0.60;;;29.80;38.10;;;;;;5083069;28;20032;-62
2022/06/16 12:20:03;;;;;;;0.90;0.90;;;29.90;37.90;;;;;;5073973;28;20044;-64
2022/06/16 12:22:38;;;;;;;0.90;0.90;;;30.00;37.40;;;;;;5088526;28;20473;-64
2022/06/16 12:25:10;;;;;;;0.63;0.63;;;30.00;37.20;;;;;;5077982;28;20020;-63
2022/06/16 12:27:35;;;;;;;0.70;0.60;;;30.00;37.40;;;;;;5085275;28;20443;-64
2022/06/16 12:30:07;;;;;;;0.80;0.80;;;30.10;37.50;;;;;;5081544;28;20128;-64
2022/06/16 12:32:35;;;;;;;;;;;30.20;37.20;;;;;;5080115;28;20039;-64
2022/06/16 12:35:28;;;;;;;0.82;0.80;;;30.40;36.90;;;;;;5078489;28;19908;-64
2022/06/16 12:37:59;;;;;;;0.82;0.80;;;30.40;37.10;;;;;;5070198;28;20063;-64
2022/06/16 12:40:34;;;;;;;0.82;0.82;;;30.40;36.80;;;;;;5088877;28;20491;-64
2022/06/16 12:43:24;;;;;;;1.15;0.80;;;30.50;36.60;;;;;;5074591;28;20028;-64
2022/06/16 12:46:02;;;;;;;1.60;1.00;;;30.60;36.80;;;;;;5084326;28;20020;-64
2022/06/16 12:48:53;;;;;;;1.33;1.23;;;30.80;36.50;;;;;;5089615;28;20032;-63
2022/06/16 12:51:25;;;;;;;2.03;1.10;;;30.70;36.00;;;;;;5070480;28;21376;-64
2022/06/16 12:53:57;;;;;;;0.80;0.80;;;30.70;35.90;;;;;;5086385;28;20103;-63
2022/06/16 12:56:31;;;;;;;0.75;0.75;;;30.80;36.00;;;;;;5088009;28;20028;-63
2022/06/16 12:59:20;;;;;;;0.80;0.80;;;30.90;35.80;;;;;;5087318;28;20031;-63
2022/06/16 13:01:49;;;;;;;1.40;1.02;;;30.90;35.90;;;;;;5092273;28;20133;-63
2022/06/16 13:04:23;;;;;;;0.88;0.88;;;31.10;35.70;;;;;;5088409;28;20127;-64
2022/06/16 13:06:49;;;;;;;1.23;1.10;;;31.10;35.10;;;;;;5089185;28;20130;-62
2022/06/16 13:09:15;;;;;;;0.88;0.88;;;31.10;35.40;;;;;;5087728;28;20028;-62
2022/06/16 13:12:02;;;;;;;0.77;0.77;;;31.10;35.40;;;;;;5087945;28;20551;-63
2022/06/16 13:14:30;;;;;;;0.68;0.68;;;31.20;35.60;;;;;;5088248;28;20111;-63
2022/06/16 13:17:00;;;;;;;0.70;0.70;;;31.50;35.60;;;;;;5079291;28;20424;-64
2022/06/16 13:19:40;;;;;;;0.93;0.80;;;31.60;35.40;;;;;;5097523;28;20591;-62
2022/06/16 13:22:18;;;;;;;0.70;0.70;;;31.40;35.20;;;;;;5082411;28;20503;-62
2022/06/16 13:24:54;;;;;;;0.70;0.70;;;31.10;35.30;;;;;;5089920;28;20100;-61
2022/06/16 13:27:27;;;;;;;0.98;0.98;;;30.70;35.80;;;;;;5093153;28;20024;-63
2022/06/16 13:30:10;;;;;;;0.82;0.63;;;30.80;36.00;;;;;;5085140;28;20032;-64
2022/06/16 13:33:20;;;;;;;0.90;0.90;;;31.00;36.00;;;;;;5084913;28;20028;-64
2022/06/16 13:36:06;;;;;;;0.80;0.80;;;31.00;35.60;;;;;;5086484;28;20427;-63
2022/06/16 13:38:41;;;;;;;0.80;0.70;;;30.60;35.90;;;;;;5089890;28;20028;-62